sensor_id;sensor_type;location;lat;lon;timestamp;temperature;humidity
14741;DHT22;7462;53.530;9.414;2023-01-28T00:01:44;2.50;99.90
14741;DHT22;7462;53.530;9.414;2023-01-28T00:04:12;2.30;99.90
14741;DHT22;7462;53.530;9.414;2023-01-28T00:06:41;2.30;99.90
14741;DHT22;7462;53.530;9.414;2023-01-28T00:09:09;2.60;99.90
14741;DHT22;7462;53.530;9.414;2023-01-28T00:11:37;2.40;99.90
14741;DHT22;7462;53.530;9.414;2023-01-28T00:14:06;2.40;99.90
14741;DHT22;7462;53.530;9.414;2023-01-28T00:16:34;2.30;99.90
14741;DHT22;7462;53.530;9.414;2023-01-28T00:19:03;2.30;99.90
14741;DHT22;7462;53.530;9.414;2023-01-28T00:21:31;2.30;99.90
14741;DHT22;7462;53.530;9.414;2023-01-28T00:23:59;2.80;99.90
14741;DHT22;7462;53.530;9.414;2023-01-28T00:26:27;2.80;99.90
14741;DHT22;7462;53.530;9.414;2023-01-28T00:28:55;2.80;99.90
14741;DHT22;7462;53.530;9.414;2023-01-28T00:31:24;2.80;99.90
14741;DHT22;7462;53.530;9.414;2023-01-28T00:33:54;3.20;99.90
14741;DHT22;7462;53.530;9.414;2023-01-28T00:36:24;3.10;99.90
14741;DHT22;7462;53.530;9.414;2023-01-28T00:38:54;2.80;99.90
14741;DHT22;7462;53.530;9.414;2023-01-28T00:41:24;2.80;99.90
14741;DHT22;7462;53.530;9.414;2023-01-28T00:43:53;3.20;99.90
14741;DHT22;7462;53.530;9.414;2023-01-28T00:46:21;3.20;99.90
14741;DHT22;7462;53.530;9.414;2023-01-28T00:48:52;3.30;99.90
14741;DHT22;7462;53.530;9.414;2023-01-28T00:51:20;3.30;99.90
14741;DHT22;7462;53.530;9.414;2023-01-28T00:53:49;3.50;99.90
14741;DHT22;7462;53.530;9.414;2023-01-28T00:56:18;3.40;99.90
14741;DHT22;7462;53.530;9.414;2023-01-28T00:58:48;3.20;99.90
14741;DHT22;7462;53.530;9.414;2023-01-28T01:01:18;2.90;99.90
14741;DHT22;7462;53.530;9.414;2023-01-28T01:03:47;2.90;99.90
14741;DHT22;7462;53.530;9.414;2023-01-28T01:06:21;3.20;99.90
14741;DHT22;7462;53.530;9.414;2023-01-28T01:08:50;3.40;99.90
14741;DHT22;7462;53.530;9.414;2023-01-28T01:11:18;3.30;99.90
14741;DHT22;7462;53.530;9.414;2023-01-28T01:13:50;3.00;99.90
14741;DHT22;7462;53.530;9.414;2023-01-28T01:16:18;2.70;99.90
14741;DHT22;7462;53.530;9.414;2023-01-28T01:18:48;2.60;99.90
14741;DHT22;7462;53.530;9.414;2023-01-28T01:21:19;2.80;99.90
14741;DHT22;7462;53.530;9.414;2023-01-28T01:23:49;3.20;99.90
14741;DHT22;7462;53.530;9.414;2023-01-28T01:26:18;3.50;99.90
14741;DHT22;7462;53.530;9.414;2023-01-28T01:28:47;3.10;99.90
14741;DHT22;7462;53.530;9.414;2023-01-28T01:31:16;3.00;99.90
14741;DHT22;7462;53.530;9.414;2023-01-28T01:33:46;2.80;99.90
14741;DHT22;7462;53.530;9.414;2023-01-28T01:36:16;3.00;99.90
14741;DHT22;7462;53.530;9.414;2023-01-28T01:38:46;2.90;99.90
14741;DHT22;7462;53.530;9.414;2023-01-28T01:41:23;2.70;99.90
14741;DHT22;7462;53.530;9.414;2023-01-28T01:43:53;3.20;99.90
14741;DHT22;7462;53.530;9.414;2023-01-28T01:46:27;3.40;99.90
14741;DHT22;7462;53.530;9.414;2023-01-28T01:49:02;3.50;99.90
14741;DHT22;7462;53.530;9.414;2023-01-28T01:51:34;3.50;99.90
14741;DHT22;7462;53.530;9.414;2023-01-28T01:54:03;3.20;99.90
14741;DHT22;7462;53.530;9.414;2023-01-28T01:56:37;3.30;99.90
14741;DHT22;7462;53.530;9.414;2023-01-28T01:59:09;3.20;99.90
14741;DHT22;7462;53.530;9.414;2023-01-28T02:01:38;3.00;99.90
14741;DHT22;7462;53.530;9.414;2023-01-28T02:04:11;3.10;99.90
14741;DHT22;7462;53.530;9.414;2023-01-28T02:06:41;2.80;99.90
14741;DHT22;7462;53.530;9.414;2023-01-28T02:09:24;2.60;99.90
14741;DHT22;7462;53.530;9.414;2023-01-28T02:11:56;2.90;99.90
14741;DHT22;7462;53.530;9.414;2023-01-28T02:14:27;2.70;99.90
14741;DHT22;7462;53.530;9.414;2023-01-28T02:16:58;3.10;99.90
14741;DHT22;7462;53.530;9.414;2023-01-28T02:19:32;3.10;99.90
14741;DHT22;7462;53.530;9.414;2023-01-28T02:22:14;3.40;99.90
14741;DHT22;7462;53.530;9.414;2023-01-28T02:25:40;3.50;99.90
14741;DHT22;7462;53.530;9.414;2023-01-28T02:28:22;3.10;99.90
14741;DHT22;7462;53.530;9.414;2023-01-28T02:30:54;2.90;99.90
14741;DHT22;7462;53.530;9.414;2023-01-28T02:33:29;3.10;99.90
14741;DHT22;7462;53.530;9.414;2023-01-28T02:36:08;3.00;99.90
14741;DHT22;7462;53.530;9.414;2023-01-28T02:38:41;2.90;99.90
14741;DHT22;7462;53.530;9.414;2023-01-28T02:41:17;2.70;99.90
14741;DHT22;7462;53.530;9.414;2023-01-28T02:43:49;2.50;99.90
14741;DHT22;7462;53.530;9.414;2023-01-28T02:46:21;2.60;99.90
14741;DHT22;7462;53.530;9.414;2023-01-28T02:49:10;2.60;99.90
14741;DHT22;7462;53.530;9.414;2023-01-28T02:51:49;2.60;99.90
14741;DHT22;7462;53.530;9.414;2023-01-28T02:54:30;2.50;99.90
14741;DHT22;7462;53.530;9.414;2023-01-28T02:57:08;2.80;99.90
14741;DHT22;7462;53.530;9.414;2023-01-28T02:59:43;2.80;99.90
14741;DHT22;7462;53.530;9.414;2023-01-28T03:02:22;2.60;99.90
14741;DHT22;7462;53.530;9.414;2023-01-28T03:04:57;2.90;99.90
14741;DHT22;7462;53.530;9.414;2023-01-28T03:07:28;2.60;99.90
14741;DHT22;7462;53.530;9.414;2023-01-28T03:10:02;2.50;99.90
14741;DHT22;7462;53.530;9.414;2023-01-28T03:12:34;2.60;99.90
14741;DHT22;7462;53.530;9.414;2023-01-28T03:15:23;2.90;99.90
14741;DHT22;7462;53.530;9.414;2023-01-28T03:18:12;3.00;99.90
14741;DHT22;7462;53.530;9.414;2023-01-28T03:21:03;3.30;99.90
14741;DHT22;7462;53.530;9.414;2023-01-28T03:23:53;3.40;99.90
14741;DHT22;7462;53.530;9.414;2023-01-28T03:26:43;3.50;99.90
14741;DHT22;7462;53.530;9.414;2023-01-28T03:29:32;3.50;99.90
14741;DHT22;7462;53.530;9.414;2023-01-28T03:32:22;3.40;99.90
14741;DHT22;7462;53.530;9.414;2023-01-28T03:35:08;3.30;99.90
14741;DHT22;7462;53.530;9.414;2023-01-28T03:37:55;2.90;99.90
14741;DHT22;7462;53.530;9.414;2023-01-28T03:40:27;3.00;99.90
14741;DHT22;7462;53.530;9.414;2023-01-28T03:42:55;3.20;99.90
14741;DHT22;7462;53.530;9.414;2023-01-28T03:45:32;2.90;99.90
14741;DHT22;7462;53.530;9.414;2023-01-28T03:48:04;2.70;99.90
14741;DHT22;7462;53.530;9.414;2023-01-28T03:50:33;3.00;99.90
14741;DHT22;7462;53.530;9.414;2023-01-28T03:53:01;2.80;99.90
14741;DHT22;7462;53.530;9.414;2023-01-28T03:55:51;3.00;99.90
14741;DHT22;7462;53.530;9.414;2023-01-28T03:58:20;3.10;99.90
14741;DHT22;7462;53.530;9.414;2023-01-28T04:00:50;2.80;99.90
14741;DHT22;7462;53.530;9.414;2023-01-28T04:03:20;2.80;99.90
14741;DHT22;7462;53.530;9.414;2023-01-28T04:06:01;2.70;99.90
14741;DHT22;7462;53.530;9.414;2023-01-28T04:08:54;2.90;99.90
14741;DHT22;7462;53.530;9.414;2023-01-28T04:11:45;3.00;99.90
14741;DHT22;7462;53.530;9.414;2023-01-28T04:14:18;2.70;99.90
14741;DHT22;7462;53.530;9.414;2023-01-28T04:16:53;2.60;99.90
14741;DHT22;7462;53.530;9.414;2023-01-28T04:19:25;2.40;99.90
14741;DHT22;7462;53.530;9.414;2023-01-28T04:21:55;2.30;99.90
14741;DHT22;7462;53.530;9.414;2023-01-28T04:24:24;2.40;99.90
14741;DHT22;7462;53.530;9.414;2023-01-28T04:26:53;2.60;99.90
14741;DHT22;7462;53.530;9.414;2023-01-28T04:29:22;2.60;99.90
14741;DHT22;7462;53.530;9.414;2023-01-28T04:31:52;2.80;99.90
14741;DHT22;7462;53.530;9.414;2023-01-28T04:34:42;2.90;99.90
14741;DHT22;7462;53.530;9.414;2023-01-28T04:37:36;2.60;99.90
14741;DHT22;7462;53.530;9.414;2023-01-28T04:40:11;2.40;99.90
14741;DHT22;7462;53.530;9.414;2023-01-28T04:42:52;2.40;99.90
14741;DHT22;7462;53.530;9.414;2023-01-28T04:45:44;2.40;99.90
14741;DHT22;7462;53.530;9.414;2023-01-28T04:48:29;2.70;99.90
14741;DHT22;7462;53.530;9.414;2023-01-28T04:51:17;2.40;99.90
14741;DHT22;7462;53.530;9.414;2023-01-28T04:54:18;2.20;99.90
14741;DHT22;7462;53.530;9.414;2023-01-28T04:56:46;2.30;99.90
14741;DHT22;7462;53.530;9.414;2023-01-28T04:59:14;2.50;99.90
14741;DHT22;7462;53.530;9.414;2023-01-28T05:01:42;2.70;99.90
14741;DHT22;7462;53.530;9.414;2023-01-28T05:04:11;2.80;99.90
14741;DHT22;7462;53.530;9.414;2023-01-28T05:06:40;3.00;99.90
14741;DHT22;7462;53.530;9.414;2023-01-28T05:09:15;2.90;99.90
14741;DHT22;7462;53.530;9.414;2023-01-28T05:11:43;2.90;99.90
14741;DHT22;7462;53.530;9.414;2023-01-28T05:14:12;2.70;99.90
14741;DHT22;7462;53.530;9.414;2023-01-28T05:16:44;2.80;99.90
14741;DHT22;7462;53.530;9.414;2023-01-28T05:19:13;2.70;99.90
14741;DHT22;7462;53.530;9.414;2023-01-28T05:21:46;2.80;99.90
14741;DHT22;7462;53.530;9.414;2023-01-28T05:24:22;2.70;99.90
14741;DHT22;7462;53.530;9.414;2023-01-28T05:26:52;2.70;99.90
14741;DHT22;7462;53.530;9.414;2023-01-28T05:29:20;2.60;99.90
14741;DHT22;7462;53.530;9.414;2023-01-28T05:31:48;2.60;99.90
14741;DHT22;7462;53.530;9.414;2023-01-28T05:34:16;2.60;99.90
14741;DHT22;7462;53.530;9.414;2023-01-28T05:36:46;2.40;99.90
14741;DHT22;7462;53.530;9.414;2023-01-28T05:39:26;2.50;99.90
14741;DHT22;7462;53.530;9.414;2023-01-28T05:41:54;2.20;99.90
14741;DHT22;7462;53.530;9.414;2023-01-28T05:44:23;2.50;99.90
14741;DHT22;7462;53.530;9.414;2023-01-28T05:47:13;2.50;99.90
14741;DHT22;7462;53.530;9.414;2023-01-28T05:49:51;2.50;99.90
14741;DHT22;7462;53.530;9.414;2023-01-28T05:52:32;2.50;99.90
14741;DHT22;7462;53.530;9.414;2023-01-28T05:55:01;2.40;99.90
14741;DHT22;7462;53.530;9.414;2023-01-28T05:57:30;2.50;99.90
14741;DHT22;7462;53.530;9.414;2023-01-28T05:59:58;2.30;99.90
14741;DHT22;7462;53.530;9.414;2023-01-28T06:02:27;2.50;99.90
14741;DHT22;7462;53.530;9.414;2023-01-28T06:04:58;2.60;99.90
14741;DHT22;7462;53.530;9.414;2023-01-28T06:07:26;2.50;99.90
14741;DHT22;7462;53.530;9.414;2023-01-28T06:09:55;2.50;99.90
14741;DHT22;7462;53.530;9.414;2023-01-28T06:12:23;2.20;99.90
14741;DHT22;7462;53.530;9.414;2023-01-28T06:15:10;1.80;99.90
14741;DHT22;7462;53.530;9.414;2023-01-28T06:18:00;1.80;99.90
14741;DHT22;7462;53.530;9.414;2023-01-28T06:20:31;1.90;99.90
14741;DHT22;7462;53.530;9.414;2023-01-28T06:23:00;1.60;99.90
14741;DHT22;7462;53.530;9.414;2023-01-28T06:25:29;1.70;99.90
14741;DHT22;7462;53.530;9.414;2023-01-28T06:28:02;1.80;99.90
14741;DHT22;7462;53.530;9.414;2023-01-28T06:30:30;1.70;99.90
14741;DHT22;7462;53.530;9.414;2023-01-28T06:32:58;1.50;99.90
14741;DHT22;7462;53.530;9.414;2023-01-28T06:35:26;1.30;99.90
14741;DHT22;7462;53.530;9.414;2023-01-28T06:37:54;1.30;99.90
14741;DHT22;7462;53.530;9.414;2023-01-28T06:40:23;1.10;99.90
14741;DHT22;7462;53.530;9.414;2023-01-28T06:42:53;1.40;99.90
14741;DHT22;7462;53.530;9.414;2023-01-28T06:45:21;1.50;99.90
14741;DHT22;7462;53.530;9.414;2023-01-28T06:47:49;1.60;99.90
14741;DHT22;7462;53.530;9.414;2023-01-28T06:50:17;1.80;99.90
14741;DHT22;7462;53.530;9.414;2023-01-28T06:52:45;1.70;99.90
14741;DHT22;7462;53.530;9.414;2023-01-28T06:55:13;1.90;99.90
14741;DHT22;7462;53.530;9.414;2023-01-28T06:57:41;1.50;99.90
14741;DHT22;7462;53.530;9.414;2023-01-28T07:00:13;1.20;99.90
14741;DHT22;7462;53.530;9.414;2023-01-28T07:02:42;1.30;99.90
14741;DHT22;7462;53.530;9.414;2023-01-28T07:05:10;1.30;99.90
14741;DHT22;7462;53.530;9.414;2023-01-28T07:07:38;1.50;99.90
14741;DHT22;7462;53.530;9.414;2023-01-28T07:10:09;1.40;99.90
14741;DHT22;7462;53.530;9.414;2023-01-28T07:12:37;1.50;99.90
14741;DHT22;7462;53.530;9.414;2023-01-28T07:15:07;1.70;99.90
14741;DHT22;7462;53.530;9.414;2023-01-28T07:17:39;1.60;99.90
14741;DHT22;7462;53.530;9.414;2023-01-28T07:20:09;1.50;99.90
14741;DHT22;7462;53.530;9.414;2023-01-28T07:22:40;1.50;99.90
14741;DHT22;7462;53.530;9.414;2023-01-28T07:25:10;1.50;99.90
14741;DHT22;7462;53.530;9.414;2023-01-28T07:27:38;1.60;99.90
14741;DHT22;7462;53.530;9.414;2023-01-28T07:30:07;1.70;99.90
14741;DHT22;7462;53.530;9.414;2023-01-28T07:32:35;1.40;99.90
14741;DHT22;7462;53.530;9.414;2023-01-28T07:35:06;1.10;99.90
14741;DHT22;7462;53.530;9.414;2023-01-28T07:37:34;0.90;99.90
14741;DHT22;7462;53.530;9.414;2023-01-28T07:40:03;1.10;99.90
14741;DHT22;7462;53.530;9.414;2023-01-28T07:42:31;1.10;99.90
14741;DHT22;7462;53.530;9.414;2023-01-28T07:45:04;1.10;99.90
14741;DHT22;7462;53.530;9.414;2023-01-28T07:47:32;1.00;99.90
14741;DHT22;7462;53.530;9.414;2023-01-28T07:50:00;0.90;99.90
14741;DHT22;7462;53.530;9.414;2023-01-28T07:52:29;1.20;99.90
14741;DHT22;7462;53.530;9.414;2023-01-28T07:55:04;1.00;99.90
14741;DHT22;7462;53.530;9.414;2023-01-28T07:57:32;1.30;99.90
14741;DHT22;7462;53.530;9.414;2023-01-28T08:00:00;1.20;99.90
14741;DHT22;7462;53.530;9.414;2023-01-28T08:02:37;1.10;99.90
14741;DHT22;7462;53.530;9.414;2023-01-28T08:05:06;1.10;99.90
14741;DHT22;7462;53.530;9.414;2023-01-28T08:07:36;1.10;99.90
14741;DHT22;7462;53.530;9.414;2023-01-28T08:10:05;1.10;99.90
14741;DHT22;7462;53.530;9.414;2023-01-28T08:12:33;1.10;99.90
14741;DHT22;7462;53.530;9.414;2023-01-28T08:15:01;1.20;99.90
14741;DHT22;7462;53.530;9.414;2023-01-28T08:17:31;1.30;99.90
14741;DHT22;7462;53.530;9.414;2023-01-28T08:19:59;1.20;99.90
14741;DHT22;7462;53.530;9.414;2023-01-28T08:22:28;1.00;99.90
14741;DHT22;7462;53.530;9.414;2023-01-28T08:24:57;1.00;99.90
14741;DHT22;7462;53.530;9.414;2023-01-28T08:27:25;1.00;99.90
14741;DHT22;7462;53.530;9.414;2023-01-28T08:29:53;1.10;99.90
14741;DHT22;7462;53.530;9.414;2023-01-28T08:32:21;1.30;99.90
14741;DHT22;7462;53.530;9.414;2023-01-28T08:34:49;1.70;99.90
14741;DHT22;7462;53.530;9.414;2023-01-28T08:37:17;1.80;99.90
14741;DHT22;7462;53.530;9.414;2023-01-28T08:39:45;1.80;99.90
14741;DHT22;7462;53.530;9.414;2023-01-28T08:42:15;1.90;99.90
14741;DHT22;7462;53.530;9.414;2023-01-28T08:44:43;1.90;99.90
14741;DHT22;7462;53.530;9.414;2023-01-28T08:47:11;2.10;99.90
14741;DHT22;7462;53.530;9.414;2023-01-28T08:49:39;2.10;99.90
14741;DHT22;7462;53.530;9.414;2023-01-28T08:52:07;2.10;99.90
14741;DHT22;7462;53.530;9.414;2023-01-28T08:54:42;2.30;99.90
14741;DHT22;7462;53.530;9.414;2023-01-28T08:57:10;2.50;99.90
14741;DHT22;7462;53.530;9.414;2023-01-28T08:59:39;2.50;99.90
14741;DHT22;7462;53.530;9.414;2023-01-28T09:02:12;2.70;99.90
14741;DHT22;7462;53.530;9.414;2023-01-28T09:04:56;2.80;99.90
14741;DHT22;7462;53.530;9.414;2023-01-28T09:07:24;2.80;99.90
14741;DHT22;7462;53.530;9.414;2023-01-28T09:09:52;2.70;99.90
14741;DHT22;7462;53.530;9.414;2023-01-28T09:12:21;2.90;99.90
14741;DHT22;7462;53.530;9.414;2023-01-28T09:14:50;3.10;99.90
14741;DHT22;7462;53.530;9.414;2023-01-28T09:17:18;3.10;99.90
14741;DHT22;7462;53.530;9.414;2023-01-28T09:19:46;3.20;99.90
14741;DHT22;7462;53.530;9.414;2023-01-28T09:22:15;3.20;99.90
14741;DHT22;7462;53.530;9.414;2023-01-28T09:24:43;3.20;99.90
14741;DHT22;7462;53.530;9.414;2023-01-28T09:27:11;3.20;99.90
14741;DHT22;7462;53.530;9.414;2023-01-28T09:29:39;3.30;99.90
14741;DHT22;7462;53.530;9.414;2023-01-28T09:32:09;3.40;99.90
14741;DHT22;7462;53.530;9.414;2023-01-28T09:34:37;3.60;99.90
14741;DHT22;7462;53.530;9.414;2023-01-28T09:37:05;3.80;99.90
14741;DHT22;7462;53.530;9.414;2023-01-28T09:39:34;4.00;99.90
14741;DHT22;7462;53.530;9.414;2023-01-28T09:42:26;4.10;99.90
14741;DHT22;7462;53.530;9.414;2023-01-28T09:45:03;4.20;99.90
14741;DHT22;7462;53.530;9.414;2023-01-28T09:47:40;4.40;99.90
14741;DHT22;7462;53.530;9.414;2023-01-28T09:50:13;4.30;99.90
14741;DHT22;7462;53.530;9.414;2023-01-28T09:52:43;4.20;99.90
14741;DHT22;7462;53.530;9.414;2023-01-28T09:55:18;4.10;99.90
14741;DHT22;7462;53.530;9.414;2023-01-28T09:57:51;4.10;99.90
14741;DHT22;7462;53.530;9.414;2023-01-28T10:00:22;4.30;99.90
14741;DHT22;7462;53.530;9.414;2023-01-28T10:03:12;4.40;99.90
14741;DHT22;7462;53.530;9.414;2023-01-28T10:05:54;4.70;99.90
14741;DHT22;7462;53.530;9.414;2023-01-28T10:08:41;4.80;99.90
14741;DHT22;7462;53.530;9.414;2023-01-28T10:11:23;4.80;99.90
14741;DHT22;7462;53.530;9.414;2023-01-28T10:13:59;4.90;99.90
14741;DHT22;7462;53.530;9.414;2023-01-28T10:16:33;5.00;99.90
14741;DHT22;7462;53.530;9.414;2023-01-28T10:19:10;4.80;99.90
14741;DHT22;7462;53.530;9.414;2023-01-28T10:21:47;4.80;99.90
14741;DHT22;7462;53.530;9.414;2023-01-28T10:24:24;4.90;99.90
14741;DHT22;7462;53.530;9.414;2023-01-28T10:26:55;4.90;99.90
14741;DHT22;7462;53.530;9.414;2023-01-28T10:29:26;5.00;99.90
14741;DHT22;7462;53.530;9.414;2023-01-28T10:31:58;5.00;99.90
14741;DHT22;7462;53.530;9.414;2023-01-28T10:34:27;4.90;99.90
14741;DHT22;7462;53.530;9.414;2023-01-28T10:36:57;5.10;99.90
14741;DHT22;7462;53.530;9.414;2023-01-28T10:39:25;5.20;99.90
14741;DHT22;7462;53.530;9.414;2023-01-28T10:41:55;5.30;99.90
14741;DHT22;7462;53.530;9.414;2023-01-28T10:44:31;5.40;99.90
14741;DHT22;7462;53.530;9.414;2023-01-28T10:47:03;5.50;99.90
14741;DHT22;7462;53.530;9.414;2023-01-28T10:49:40;5.50;99.90
14741;DHT22;7462;53.530;9.414;2023-01-28T10:52:11;5.60;99.90
14741;DHT22;7462;53.530;9.414;2023-01-28T10:54:39;5.60;99.90
14741;DHT22;7462;53.530;9.414;2023-01-28T10:57:10;5.40;99.90
14741;DHT22;7462;53.530;9.414;2023-01-28T10:59:39;5.40;99.90
14741;DHT22;7462;53.530;9.414;2023-01-28T11:02:27;5.50;99.90
14741;DHT22;7462;53.530;9.414;2023-01-28T11:05:15;5.70;99.90
14741;DHT22;7462;53.530;9.414;2023-01-28T11:07:43;5.80;99.90
14741;DHT22;7462;53.530;9.414;2023-01-28T11:10:24;5.70;99.90
14741;DHT22;7462;53.530;9.414;2023-01-28T11:12:56;5.80;99.90
14741;DHT22;7462;53.530;9.414;2023-01-28T11:15:25;5.90;99.90
14741;DHT22;7462;53.530;9.414;2023-01-28T11:17:57;5.90;99.90
14741;DHT22;7462;53.530;9.414;2023-01-28T11:20:30;6.10;99.90
14741;DHT22;7462;53.530;9.414;2023-01-28T11:23:00;6.10;99.90
14741;DHT22;7462;53.530;9.414;2023-01-28T11:25:30;6.10;99.90
14741;DHT22;7462;53.530;9.414;2023-01-28T11:28:00;5.80;99.90
14741;DHT22;7462;53.530;9.414;2023-01-28T11:30:30;5.60;99.90
14741;DHT22;7462;53.530;9.414;2023-01-28T11:33:04;5.40;99.90
14741;DHT22;7462;53.530;9.414;2023-01-28T11:35:36;5.30;99.90
14741;DHT22;7462;53.530;9.414;2023-01-28T11:38:16;5.30;99.90
14741;DHT22;7462;53.530;9.414;2023-01-28T11:40:49;5.30;99.90
14741;DHT22;7462;53.530;9.414;2023-01-28T11:43:20;5.20;99.90
14741;DHT22;7462;53.530;9.414;2023-01-28T11:45:56;5.10;99.90
14741;DHT22;7462;53.530;9.414;2023-01-28T11:48:34;5.00;99.90
14741;DHT22;7462;53.530;9.414;2023-01-28T11:51:16;4.90;99.90
14741;DHT22;7462;53.530;9.414;2023-01-28T11:54:03;4.70;99.90
14741;DHT22;7462;53.530;9.414;2023-01-28T11:56:52;4.60;99.90
14741;DHT22;7462;53.530;9.414;2023-01-28T11:59:53;4.60;99.90
14741;DHT22;7462;53.530;9.414;2023-01-28T12:02:50;4.60;99.90
14741;DHT22;7462;53.530;9.414;2023-01-28T12:05:42;4.70;99.90
14741;DHT22;7462;53.530;9.414;2023-01-28T12:08:20;4.80;99.90
14741;DHT22;7462;53.530;9.414;2023-01-28T12:11:08;5.00;99.90
14741;DHT22;7462;53.530;9.414;2023-01-28T12:13:50;5.20;99.90
14741;DHT22;7462;53.530;9.414;2023-01-28T12:16:38;5.30;99.90
14741;DHT22;7462;53.530;9.414;2023-01-28T12:19:22;5.40;99.90
14741;DHT22;7462;53.530;9.414;2023-01-28T12:22:05;5.30;99.90
14741;DHT22;7462;53.530;9.414;2023-01-28T12:24:50;5.30;99.90
14741;DHT22;7462;53.530;9.414;2023-01-28T12:27:30;5.40;99.90
14741;DHT22;7462;53.530;9.414;2023-01-28T12:30:12;5.50;99.90
14741;DHT22;7462;53.530;9.414;2023-01-28T12:32:54;5.50;99.90
14741;DHT22;7462;53.530;9.414;2023-01-28T12:35:39;5.60;99.90
14741;DHT22;7462;53.530;9.414;2023-01-28T12:38:14;5.50;99.90
14741;DHT22;7462;53.530;9.414;2023-01-28T12:40:58;5.30;99.90
14741;DHT22;7462;53.530;9.414;2023-01-28T12:43:47;5.30;99.90
14741;DHT22;7462;53.530;9.414;2023-01-28T12:46:25;5.20;99.90
14741;DHT22;7462;53.530;9.414;2023-01-28T12:49:00;5.20;99.90
14741;DHT22;7462;53.530;9.414;2023-01-28T12:51:33;5.10;99.90
14741;DHT22;7462;53.530;9.414;2023-01-28T12:54:05;5.10;99.90
14741;DHT22;7462;53.530;9.414;2023-01-28T12:56:41;5.00;99.90
14741;DHT22;7462;53.530;9.414;2023-01-28T12:59:13;5.00;99.90
14741;DHT22;7462;53.530;9.414;2023-01-28T13:01:45;4.90;99.90
14741;DHT22;7462;53.530;9.414;2023-01-28T13:04:28;4.80;99.90
14741;DHT22;7462;53.530;9.414;2023-01-28T13:07:01;4.70;99.90
14741;DHT22;7462;53.530;9.414;2023-01-28T13:09:34;4.70;99.90
14741;DHT22;7462;53.530;9.414;2023-01-28T13:12:05;4.60;99.90
14741;DHT22;7462;53.530;9.414;2023-01-28T13:14:34;4.60;99.90
14741;DHT22;7462;53.530;9.414;2023-01-28T13:17:22;4.60;99.90
14741;DHT22;7462;53.530;9.414;2023-01-28T13:19:51;4.50;99.90
14741;DHT22;7462;53.530;9.414;2023-01-28T13:22:27;4.60;99.90
14741;DHT22;7462;53.530;9.414;2023-01-28T13:24:56;4.80;99.90
14741;DHT22;7462;53.530;9.414;2023-01-28T13:27:27;4.80;99.90
14741;DHT22;7462;53.530;9.414;2023-01-28T13:30:05;5.00;99.90
14741;DHT22;7462;53.530;9.414;2023-01-28T13:32:56;4.90;99.90
14741;DHT22;7462;53.530;9.414;2023-01-28T13:35:30;5.00;99.90
14741;DHT22;7462;53.530;9.414;2023-01-28T13:38:06;5.00;99.90
14741;DHT22;7462;53.530;9.414;2023-01-28T13:40:35;5.00;99.90
14741;DHT22;7462;53.530;9.414;2023-01-28T13:43:26;4.90;99.90
14741;DHT22;7462;53.530;9.414;2023-01-28T13:45:56;4.90;99.90
14741;DHT22;7462;53.530;9.414;2023-01-28T13:48:30;4.70;99.90
14741;DHT22;7462;53.530;9.414;2023-01-28T13:51:00;4.70;99.90
14741;DHT22;7462;53.530;9.414;2023-01-28T13:53:38;4.60;99.90
14741;DHT22;7462;53.530;9.414;2023-01-28T13:56:17;4.50;99.90
14741;DHT22;7462;53.530;9.414;2023-01-28T14:02:19;4.60;99.90
14741;DHT22;7462;53.530;9.414;2023-01-28T14:08:37;4.40;99.90
14741;DHT22;7462;53.530;9.414;2023-01-28T14:16:56;4.40;99.90
14741;DHT22;7462;53.530;9.414;2023-01-28T14:19:28;4.40;99.90
14741;DHT22;7462;53.530;9.414;2023-01-28T14:21:56;4.50;99.90
14741;DHT22;7462;53.530;9.414;2023-01-28T14:24:26;4.50;99.90
14741;DHT22;7462;53.530;9.414;2023-01-28T14:27:00;4.50;99.90
14741;DHT22;7462;53.530;9.414;2023-01-28T14:29:41;4.40;99.90
14741;DHT22;7462;53.530;9.414;2023-01-28T14:32:13;4.40;99.90
14741;DHT22;7462;53.530;9.414;2023-01-28T14:34:43;4.40;99.90
14741;DHT22;7462;53.530;9.414;2023-01-28T14:37:13;4.30;99.90
14741;DHT22;7462;53.530;9.414;2023-01-28T14:39:44;4.20;99.90
14741;DHT22;7462;53.530;9.414;2023-01-28T14:42:18;4.20;99.90
14741;DHT22;7462;53.530;9.414;2023-01-28T14:44:52;4.20;99.90
14741;DHT22;7462;53.530;9.414;2023-01-28T14:47:49;4.20;99.90
14741;DHT22;7462;53.530;9.414;2023-01-28T14:50:29;4.30;99.90
14741;DHT22;7462;53.530;9.414;2023-01-28T14:53:24;4.30;99.90
14741;DHT22;7462;53.530;9.414;2023-01-28T14:55:58;4.50;99.90
14741;DHT22;7462;53.530;9.414;2023-01-28T14:58:30;4.40;99.90
14741;DHT22;7462;53.530;9.414;2023-01-28T15:01:01;4.30;99.90
14741;DHT22;7462;53.530;9.414;2023-01-28T15:03:34;4.20;99.90
14741;DHT22;7462;53.530;9.414;2023-01-28T15:06:13;4.20;99.90
14741;DHT22;7462;53.530;9.414;2023-01-28T15:08:41;4.10;99.90
14741;DHT22;7462;53.530;9.414;2023-01-28T15:11:12;4.00;99.90
14741;DHT22;7462;53.530;9.414;2023-01-28T15:13:42;4.00;99.90
14741;DHT22;7462;53.530;9.414;2023-01-28T15:16:19;4.00;99.90
14741;DHT22;7462;53.530;9.414;2023-01-28T15:18:48;4.10;99.90
14741;DHT22;7462;53.530;9.414;2023-01-28T15:21:20;4.10;99.90
14741;DHT22;7462;53.530;9.414;2023-01-28T15:23:50;4.00;99.90
14741;DHT22;7462;53.530;9.414;2023-01-28T15:26:21;4.00;99.90
14741;DHT22;7462;53.530;9.414;2023-01-28T15:28:51;3.80;99.90
14741;DHT22;7462;53.530;9.414;2023-01-28T15:31:24;3.90;99.90
14741;DHT22;7462;53.530;9.414;2023-01-28T15:33:56;3.80;99.90
14741;DHT22;7462;53.530;9.414;2023-01-28T15:36:26;3.70;99.90
14741;DHT22;7462;53.530;9.414;2023-01-28T15:38:55;3.70;99.90
14741;DHT22;7462;53.530;9.414;2023-01-28T15:41:27;3.70;99.90
14741;DHT22;7462;53.530;9.414;2023-01-28T15:43:56;3.70;99.90
14741;DHT22;7462;53.530;9.414;2023-01-28T15:46:26;3.70;99.90
14741;DHT22;7462;53.530;9.414;2023-01-28T15:48:58;3.70;99.90
14741;DHT22;7462;53.530;9.414;2023-01-28T15:51:28;3.60;99.90
14741;DHT22;7462;53.530;9.414;2023-01-28T15:53:59;3.60;99.90
14741;DHT22;7462;53.530;9.414;2023-01-28T15:56:30;3.60;99.90
14741;DHT22;7462;53.530;9.414;2023-01-28T15:59:08;3.50;99.90
14741;DHT22;7462;53.530;9.414;2023-01-28T16:01:38;3.40;99.90
14741;DHT22;7462;53.530;9.414;2023-01-28T16:04:20;3.50;99.90
14741;DHT22;7462;53.530;9.414;2023-01-28T16:06:48;3.40;99.90
14741;DHT22;7462;53.530;9.414;2023-01-28T16:09:21;3.40;99.90
14741;DHT22;7462;53.530;9.414;2023-01-28T16:11:51;3.40;99.90
14741;DHT22;7462;53.530;9.414;2023-01-28T16:14:21;3.40;99.90
14741;DHT22;7462;53.530;9.414;2023-01-28T16:16:53;3.40;99.90
14741;DHT22;7462;53.530;9.414;2023-01-28T16:19:31;3.40;99.90
14741;DHT22;7462;53.530;9.414;2023-01-28T16:22:00;3.50;99.90
14741;DHT22;7462;53.530;9.414;2023-01-28T16:24:30;3.40;99.90
14741;DHT22;7462;53.530;9.414;2023-01-28T16:27:03;3.40;99.90
14741;DHT22;7462;53.530;9.414;2023-01-28T16:29:34;3.40;99.90
14741;DHT22;7462;53.530;9.414;2023-01-28T16:32:28;3.40;99.90
14741;DHT22;7462;53.530;9.414;2023-01-28T16:34:56;3.60;99.90
14741;DHT22;7462;53.530;9.414;2023-01-28T16:37:25;3.50;99.90
14741;DHT22;7462;53.530;9.414;2023-01-28T16:39:54;3.60;99.90
14741;DHT22;7462;53.530;9.414;2023-01-28T16:42:24;3.50;99.90
14741;DHT22;7462;53.530;9.414;2023-01-28T16:44:52;3.40;99.90
14741;DHT22;7462;53.530;9.414;2023-01-28T16:47:22;3.40;99.90
14741;DHT22;7462;53.530;9.414;2023-01-28T16:49:50;3.50;99.90
14741;DHT22;7462;53.530;9.414;2023-01-28T16:52:18;3.60;99.90
14741;DHT22;7462;53.530;9.414;2023-01-28T16:54:46;3.50;99.90
14741;DHT22;7462;53.530;9.414;2023-01-28T16:57:16;3.40;99.90